sensor_id;sensor_type;location;lat;lon;timestamp;temperature;humidity
5415;DHT22;2730;51.512;7.504;2022-07-29T05:00:40;17.20;99.90
5415;DHT22;2730;51.512;7.504;2022-07-29T05:03:09;17.20;99.90
5415;DHT22;2730;51.512;7.504;2022-07-29T05:05:36;17.20;99.90
5415;DHT22;2730;51.512;7.504;2022-07-29T05:08:03;17.20;99.90
5415;DHT22;2730;51.512;7.504;2022-07-29T05:10:30;17.10;99.90
5415;DHT22;2730;51.512;7.504;2022-07-29T05:12:58;17.10;99.90
5415;DHT22;2730;51.512;7.504;2022-07-29T05:15:29;17.10;99.90
5415;DHT22;2730;51.512;7.504;2022-07-29T05:18:00;17.00;99.90
5415;DHT22;2730;51.512;7.504;2022-07-29T05:20:33;17.10;99.90
5415;DHT22;2730;51.512;7.504;2022-07-29T05:23:03;17.00;99.90
5415;DHT22;2730;51.512;7.504;2022-07-29T05:25:30;17.10;99.90
5415;DHT22;2730;51.512;7.504;2022-07-29T05:27:57;17.10;99.90
5415;DHT22;2730;51.512;7.504;2022-07-29T05:30:24;17.10;99.90
5415;DHT22;2730;51.512;7.504;2022-07-29T05:32:51;17.10;99.90
5415;DHT22;2730;51.512;7.504;2022-07-29T05:35:19;17.20;99.90
5415;DHT22;2730;51.512;7.504;2022-07-29T05:37:46;17.20;99.90
5415;DHT22;2730;51.512;7.504;2022-07-29T05:40:13;17.20;99.90
5415;DHT22;2730;51.512;7.504;2022-07-29T05:42:40;17.30;99.90
5415;DHT22;2730;51.512;7.504;2022-07-29T05:45:07;17.30;99.90
5415;DHT22;2730;51.512;7.504;2022-07-29T05:47:37;17.30;99.90
5415;DHT22;2730;51.512;7.504;2022-07-29T05:50:05;17.30;99.90
5415;DHT22;2730;51.512;7.504;2022-07-29T05:53:03;17.40;99.90
5415;DHT22;2730;51.512;7.504;2022-07-29T05:55:44;17.50;99.90
5415;DHT22;2730;51.512;7.504;2022-07-29T05:58:11;17.60;99.90
5415;DHT22;2730;51.512;7.504;2022-07-29T06:00:38;17.50;99.90
5415;DHT22;2730;51.512;7.504;2022-07-29T06:03:05;17.50;99.90
5415;DHT22;2730;51.512;7.504;2022-07-29T06:05:32;17.60;99.90
5415;DHT22;2730;51.512;7.504;2022-07-29T06:08:00;17.90;99.90
5415;DHT22;2730;51.512;7.504;2022-07-29T06:10:27;18.30;99.90
5415;DHT22;2730;51.512;7.504;2022-07-29T06:12:54;18.60;99.90
5415;DHT22;2730;51.512;7.504;2022-07-29T06:15:20;18.80;99.90
5415;DHT22;2730;51.512;7.504;2022-07-29T06:17:47;19.20;99.90
5415;DHT22;2730;51.512;7.504;2022-07-29T06:20:14;19.20;99.90
5415;DHT22;2730;51.512;7.504;2022-07-29T06:22:41;19.60;99.90
5415;DHT22;2730;51.512;7.504;2022-07-29T06:25:10;19.80;99.90
5415;DHT22;2730;51.512;7.504;2022-07-29T06:27:37;20.10;99.90
5415;DHT22;2730;51.512;7.504;2022-07-29T06:30:05;20.70;99.90
5415;DHT22;2730;51.512;7.504;2022-07-29T06:32:32;20.80;99.90
5415;DHT22;2730;51.512;7.504;2022-07-29T06:34:59;20.60;99.90
5415;DHT22;2730;51.512;7.504;2022-07-29T06:37:26;20.30;99.90
5415;DHT22;2730;51.512;7.504;2022-07-29T06:39:53;20.10;99.90
5415;DHT22;2730;51.512;7.504;2022-07-29T06:42:35;19.80;99.90
5415;DHT22;2730;51.512;7.504;2022-07-29T06:45:03;19.70;99.90
5415;DHT22;2730;51.512;7.504;2022-07-29T06:47:30;20.20;99.90
5415;DHT22;2730;51.512;7.504;2022-07-29T06:49:57;20.60;99.90
5415;DHT22;2730;51.512;7.504;2022-07-29T06:52:23;20.70;99.90
5415;DHT22;2730;51.512;7.504;2022-07-29T06:54:51;20.90;99.90
5415;DHT22;2730;51.512;7.504;2022-07-29T06:57:18;20.90;99.90
5415;DHT22;2730;51.512;7.504;2022-07-29T06:59:47;22.10;99.90
5415;DHT22;2730;51.512;7.504;2022-07-29T07:02:14;22.90;99.90
5415;DHT22;2730;51.512;7.504;2022-07-29T07:04:41;23.00;99.90
5415;DHT22;2730;51.512;7.504;2022-07-29T07:07:08;23.20;99.90
5415;DHT22;2730;51.512;7.504;2022-07-29T07:09:35;22.90;99.90
5415;DHT22;2730;51.512;7.504;2022-07-29T07:12:02;23.20;99.90
5415;DHT22;2730;51.512;7.504;2022-07-29T07:14:28;22.90;99.90
5415;DHT22;2730;51.512;7.504;2022-07-29T07:16:57;22.40;99.90
5415;DHT22;2730;51.512;7.504;2022-07-29T07:19:25;22.10;99.90
5415;DHT22;2730;51.512;7.504;2022-07-29T07:21:52;22.00;99.90
5415;DHT22;2730;51.512;7.504;2022-07-29T07:24:19;22.10;99.90
5415;DHT22;2730;51.512;7.504;2022-07-29T07:26:46;22.10;99.90
5415;DHT22;2730;51.512;7.504;2022-07-29T07:29:13;22.10;99.90
5415;DHT22;2730;51.512;7.504;2022-07-29T07:31:40;22.20;99.90
5415;DHT22;2730;51.512;7.504;2022-07-29T07:34:08;22.10;99.90
5415;DHT22;2730;51.512;7.504;2022-07-29T07:36:35;22.20;99.90
5415;DHT22;2730;51.512;7.504;2022-07-29T07:39:02;22.50;99.90
5415;DHT22;2730;51.512;7.504;2022-07-29T07:41:30;22.90;99.90
5415;DHT22;2730;51.512;7.504;2022-07-29T07:43:57;24.00;99.50
5415;DHT22;2730;51.512;7.504;2022-07-29T07:46:24;24.60;98.60
5415;DHT22;2730;51.512;7.504;2022-07-29T07:48:51;24.50;98.20
5415;DHT22;2730;51.512;7.504;2022-07-29T07:51:19;24.40;98.30
5415;DHT22;2730;51.512;7.504;2022-07-29T07:53:46;24.50;98.00
5415;DHT22;2730;51.512;7.504;2022-07-29T07:56:15;24.20;98.30
5415;DHT22;2730;51.512;7.504;2022-07-29T07:58:42;24.10;98.00
5415;DHT22;2730;51.512;7.504;2022-07-29T08:01:09;23.90;98.40
5415;DHT22;2730;51.512;7.504;2022-07-29T08:03:36;23.60;98.80
5415;DHT22;2730;51.512;7.504;2022-07-29T08:06:04;23.50;98.90
5415;DHT22;2730;51.512;7.504;2022-07-29T08:08:32;23.50;98.70
5415;DHT22;2730;51.512;7.504;2022-07-29T08:10:59;23.60;98.50
5415;DHT22;2730;51.512;7.504;2022-07-29T08:13:27;23.70;98.60
5415;DHT22;2730;51.512;7.504;2022-07-29T08:15:56;23.30;98.40
5415;DHT22;2730;51.512;7.504;2022-07-29T08:18:25;23.40;98.50
5415;DHT22;2730;51.512;7.504;2022-07-29T08:20:52;23.50;98.50
5415;DHT22;2730;51.512;7.504;2022-07-29T08:23:19;23.70;98.10
5415;DHT22;2730;51.512;7.504;2022-07-29T08:25:48;23.90;97.90
5415;DHT22;2730;51.512;7.504;2022-07-29T08:28:15;24.90;97.80
5415;DHT22;2730;51.512;7.504;2022-07-29T08:30:42;25.50;97.10
5415;DHT22;2730;51.512;7.504;2022-07-29T08:33:09;26.80;96.50
5415;DHT22;2730;51.512;7.504;2022-07-29T08:35:35;27.60;94.50
5415;DHT22;2730;51.512;7.504;2022-07-29T08:38:02;27.50;93.80
5415;DHT22;2730;51.512;7.504;2022-07-29T08:40:29;26.60;94.00
5415;DHT22;2730;51.512;7.504;2022-07-29T08:42:58;26.20;95.20
5415;DHT22;2730;51.512;7.504;2022-07-29T08:45:26;26.00;94.90
5415;DHT22;2730;51.512;7.504;2022-07-29T08:47:55;26.10;95.00
5415;DHT22;2730;51.512;7.504;2022-07-29T08:50:22;25.90;94.80
5415;DHT22;2730;51.512;7.504;2022-07-29T08:52:49;25.60;95.20
5415;DHT22;2730;51.512;7.504;2022-07-29T08:55:17;25.60;95.40
5415;DHT22;2730;51.512;7.504;2022-07-29T08:57:45;26.60;95.00
5415;DHT22;2730;51.512;7.504;2022-07-29T09:00:14;27.50;93.30
5415;DHT22;2730;51.512;7.504;2022-07-29T09:02:45;28.90;92.70
5415;DHT22;2730;51.512;7.504;2022-07-29T09:05:27;30.20;90.60
5415;DHT22;2730;51.512;7.504;2022-07-29T09:08:09;30.60;89.50
5415;DHT22;2730;51.512;7.504;2022-07-29T09:10:39;30.50;89.70
5415;DHT22;2730;51.512;7.504;2022-07-29T09:13:06;30.50;88.00
5415;DHT22;2730;51.512;7.504;2022-07-29T09:15:34;29.70;88.70
5415;DHT22;2730;51.512;7.504;2022-07-29T09:18:01;28.40;89.70
5415;DHT22;2730;51.512;7.504;2022-07-29T09:20:28;27.10;90.40
5415;DHT22;2730;51.512;7.504;2022-07-29T09:23:18;25.70;91.80
5415;DHT22;2730;51.512;7.504;2022-07-29T09:25:45;25.20;92.70
5415;DHT22;2730;51.512;7.504;2022-07-29T09:28:16;25.00;92.80
5415;DHT22;2730;51.512;7.504;2022-07-29T09:30:59;24.80;92.90
5415;DHT22;2730;51.512;7.504;2022-07-29T09:33:35;24.70;93.60
5415;DHT22;2730;51.512;7.504;2022-07-29T09:36:19;24.60;94.00
5415;DHT22;2730;51.512;7.504;2022-07-29T09:38:57;24.70;94.30
5415;DHT22;2730;51.512;7.504;2022-07-29T09:41:25;24.40;94.40
5415;DHT22;2730;51.512;7.504;2022-07-29T09:43:56;24.30;94.50
5415;DHT22;2730;51.512;7.504;2022-07-29T09:46:25;23.90;95.20
5415;DHT22;2730;51.512;7.504;2022-07-29T09:49:08;23.70;98.10
5415;DHT22;2730;51.512;7.504;2022-07-29T09:51:35;23.80;98.90
5415;DHT22;2730;51.512;7.504;2022-07-29T09:54:03;23.40;99.30
5415;DHT22;2730;51.512;7.504;2022-07-29T09:56:47;23.10;99.90
5415;DHT22;2730;51.512;7.504;2022-07-29T09:59:14;23.20;99.90
5415;DHT22;2730;51.512;7.504;2022-07-29T10:01:43;23.30;99.90
5415;DHT22;2730;51.512;7.504;2022-07-29T10:04:10;23.90;99.90
5415;DHT22;2730;51.512;7.504;2022-07-29T10:06:55;23.90;99.60
5415;DHT22;2730;51.512;7.504;2022-07-29T10:09:23;24.00;99.70
5415;DHT22;2730;51.512;7.504;2022-07-29T10:12:06;23.50;99.20
5415;DHT22;2730;51.512;7.504;2022-07-29T10:14:34;23.20;99.90
5415;DHT22;2730;51.512;7.504;2022-07-29T10:17:04;23.10;99.90
5415;DHT22;2730;51.512;7.504;2022-07-29T10:19:34;23.00;99.90
5415;DHT22;2730;51.512;7.504;2022-07-29T10:22:05;22.60;99.90
5415;DHT22;2730;51.512;7.504;2022-07-29T10:24:32;22.20;99.90
5415;DHT22;2730;51.512;7.504;2022-07-29T10:27:00;22.20;99.90
5415;DHT22;2730;51.512;7.504;2022-07-29T10:29:27;22.20;99.90
5415;DHT22;2730;51.512;7.504;2022-07-29T10:34:57;22.00;99.90
5415;DHT22;2730;51.512;7.504;2022-07-29T10:37:35;21.70;99.90
5415;DHT22;2730;51.512;7.504;2022-07-29T10:40:14;21.60;99.90
5415;DHT22;2730;51.512;7.504;2022-07-29T10:43:16;21.50;99.90
5415;DHT22;2730;51.512;7.504;2022-07-29T10:45:45;21.30;99.90
5415;DHT22;2730;51.512;7.504;2022-07-29T10:48:13;21.40;99.90
5415;DHT22;2730;51.512;7.504;2022-07-29T10:50:56;21.30;99.90
5415;DHT22;2730;51.512;7.504;2022-07-29T10:53:25;21.30;99.90
5415;DHT22;2730;51.512;7.504;2022-07-29T10:56:23;21.20;99.90
5415;DHT22;2730;51.512;7.504;2022-07-29T10:59:24;21.10;99.90
5415;DHT22;2730;51.512;7.504;2022-07-29T11:01:52;21.10;99.90
5415;DHT22;2730;51.512;7.504;2022-07-29T11:07:20;20.90;99.90
5415;DHT22;2730;51.512;7.504;2022-07-29T11:10:21;21.00;99.90
5415;DHT22;2730;51.512;7.504;2022-07-29T11:12:48;21.10;99.90
5415;DHT22;2730;51.512;7.504;2022-07-29T11:15:17;21.20;99.90
5415;DHT22;2730;51.512;7.504;2022-07-29T11:18:05;21.30;99.90
5415;DHT22;2730;51.512;7.504;2022-07-29T11:20:40;21.30;99.90
5415;DHT22;2730;51.512;7.504;2022-07-29T11:23:24;21.30;99.90
5415;DHT22;2730;51.512;7.504;2022-07-29T11:26:14;21.30;99.90
5415;DHT22;2730;51.512;7.504;2022-07-29T11:28:50;21.20;99.90
5415;DHT22;2730;51.512;7.504;2022-07-29T11:31:19;21.20;99.90
5415;DHT22;2730;51.512;7.504;2022-07-29T11:33:46;21.20;99.90
5415;DHT22;2730;51.512;7.504;2022-07-29T11:36:14;21.30;99.90
5415;DHT22;2730;51.512;7.504;2022-07-29T11:38:43;21.40;99.90
5415;DHT22;2730;51.512;7.504;2022-07-29T11:41:23;21.50;99.90
5415;DHT22;2730;51.512;7.504;2022-07-29T11:43:51;21.60;99.90
5415;DHT22;2730;51.512;7.504;2022-07-29T11:46:46;21.90;99.90
5415;DHT22;2730;51.512;7.504;2022-07-29T11:49:19;22.20;99.90
5415;DHT22;2730;51.512;7.504;2022-07-29T11:51:50;22.10;99.90
5415;DHT22;2730;51.512;7.504;2022-07-29T11:54:25;22.20;99.90
5415;DHT22;2730;51.512;7.504;2022-07-29T11:56:52;22.20;99.90
5415;DHT22;2730;51.512;7.504;2022-07-29T11:59:21;22.10;99.90
5415;DHT22;2730;51.512;7.504;2022-07-29T12:01:54;22.00;99.90
5415;DHT22;2730;51.512;7.504;2022-07-29T12:04:21;21.90;99.90
5415;DHT22;2730;51.512;7.504;2022-07-29T12:06:49;21.70;99.90
5415;DHT22;2730;51.512;7.504;2022-07-29T12:09:16;21.50;99.90
5415;DHT22;2730;51.512;7.504;2022-07-29T12:11:45;21.50;99.90
5415;DHT22;2730;51.512;7.504;2022-07-29T12:14:25;21.40;99.90
5415;DHT22;2730;51.512;7.504;2022-07-29T12:16:52;21.40;99.90
5415;DHT22;2730;51.512;7.504;2022-07-29T12:19:18;21.30;99.90
5415;DHT22;2730;51.512;7.504;2022-07-29T12:21:45;21.20;99.90
5415;DHT22;2730;51.512;7.504;2022-07-29T12:24:12;21.10;99.90
5415;DHT22;2730;51.512;7.504;2022-07-29T12:26:50;21.10;99.90
5415;DHT22;2730;51.512;7.504;2022-07-29T12:29:18;21.10;99.90
5415;DHT22;2730;51.512;7.504;2022-07-29T12:31:45;20.90;99.90
5415;DHT22;2730;51.512;7.504;2022-07-29T12:34:13;20.90;99.90
5415;DHT22;2730;51.512;7.504;2022-07-29T12:36:42;20.90;99.90
5415;DHT22;2730;51.512;7.504;2022-07-29T12:39:10;20.80;99.90
5415;DHT22;2730;51.512;7.504;2022-07-29T12:41:38;20.90;99.90
5415;DHT22;2730;51.512;7.504;2022-07-29T12:44:06;20.90;99.90
5415;DHT22;2730;51.512;7.504;2022-07-29T12:46:33;20.80;99.90
5415;DHT22;2730;51.512;7.504;2022-07-29T12:49:00;20.80;99.90
5415;DHT22;2730;51.512;7.504;2022-07-29T12:51:31;20.80;99.90
5415;DHT22;2730;51.512;7.504;2022-07-29T12:54:06;20.80;99.90
5415;DHT22;2730;51.512;7.504;2022-07-29T12:56:33;20.90;99.90
5415;DHT22;2730;51.512;7.504;2022-07-29T12:59:17;21.00;99.90
5415;DHT22;2730;51.512;7.504;2022-07-29T13:01:45;21.30;99.90
5415;DHT22;2730;51.512;7.504;2022-07-29T13:04:24;21.50;99.90
5415;DHT22;2730;51.512;7.504;2022-07-29T13:06:58;21.80;99.90
5415;DHT22;2730;51.512;7.504;2022-07-29T13:09:36;21.80;99.90
5415;DHT22;2730;51.512;7.504;2022-07-29T13:12:06;21.90;99.90
5415;DHT22;2730;51.512;7.504;2022-07-29T13:14:38;22.00;99.90
5415;DHT22;2730;51.512;7.504;2022-07-29T13:17:07;22.10;99.90
5415;DHT22;2730;51.512;7.504;2022-07-29T13:19:36;22.00;99.90
5415;DHT22;2730;51.512;7.504;2022-07-29T13:22:04;21.90;99.90
5415;DHT22;2730;51.512;7.504;2022-07-29T13:24:31;21.70;99.90
5415;DHT22;2730;51.512;7.504;2022-07-29T13:26:57;21.50;99.90
5415;DHT22;2730;51.512;7.504;2022-07-29T13:29:24;21.30;99.90
5415;DHT22;2730;51.512;7.504;2022-07-29T13:31:53;21.20;99.90
5415;DHT22;2730;51.512;7.504;2022-07-29T13:34:20;20.90;99.90
5415;DHT22;2730;51.512;7.504;2022-07-29T13:36:49;20.80;99.90
5415;DHT22;2730;51.512;7.504;2022-07-29T13:39:16;20.90;99.90
5415;DHT22;2730;51.512;7.504;2022-07-29T13:41:43;21.10;99.90
5415;DHT22;2730;51.512;7.504;2022-07-29T13:44:10;21.30;99.90
5415;DHT22;2730;51.512;7.504;2022-07-29T13:46:36;21.40;99.90
5415;DHT22;2730;51.512;7.504;2022-07-29T13:49:05;21.60;99.90
5415;DHT22;2730;51.512;7.504;2022-07-29T13:51:31;21.90;99.90
5415;DHT22;2730;51.512;7.504;2022-07-29T13:53:58;22.20;99.90
5415;DHT22;2730;51.512;7.504;2022-07-29T13:56:25;22.40;99.90
5415;DHT22;2730;51.512;7.504;2022-07-29T13:58:52;22.30;99.90
5415;DHT22;2730;51.512;7.504;2022-07-29T14:01:19;22.50;99.90
5415;DHT22;2730;51.512;7.504;2022-07-29T14:03:46;22.50;99.90
5415;DHT22;2730;51.512;7.504;2022-07-29T14:06:14;22.20;99.90
5415;DHT22;2730;51.512;7.504;2022-07-29T14:08:41;22.20;99.90
5415;DHT22;2730;51.512;7.504;2022-07-29T14:11:08;22.20;99.90
5415;DHT22;2730;51.512;7.504;2022-07-29T14:13:35;22.30;99.90
5415;DHT22;2730;51.512;7.504;2022-07-29T14:16:02;22.40;99.90
5415;DHT22;2730;51.512;7.504;2022-07-29T14:18:29;22.30;99.90
5415;DHT22;2730;51.512;7.504;2022-07-29T14:20:56;22.10;99.90
5415;DHT22;2730;51.512;7.504;2022-07-29T14:23:25;22.10;99.90
5415;DHT22;2730;51.512;7.504;2022-07-29T14:25:52;22.30;99.90
5415;DHT22;2730;51.512;7.504;2022-07-29T14:28:19;22.50;99.90
5415;DHT22;2730;51.512;7.504;2022-07-29T14:30:46;22.50;99.90
5415;DHT22;2730;51.512;7.504;2022-07-29T14:33:12;22.60;99.90
5415;DHT22;2730;51.512;7.504;2022-07-29T14:35:40;22.80;99.90
5415;DHT22;2730;51.512;7.504;2022-07-29T14:38:06;22.90;99.90
5415;DHT22;2730;51.512;7.504;2022-07-29T14:40:35;23.00;99.90
5415;DHT22;2730;51.512;7.504;2022-07-29T14:43:02;23.10;99.90
5415;DHT22;2730;51.512;7.504;2022-07-29T14:45:29;23.30;99.90
5415;DHT22;2730;51.512;7.504;2022-07-29T14:47:57;23.20;99.90
5415;DHT22;2730;51.512;7.504;2022-07-29T14:50:25;23.30;99.90
5415;DHT22;2730;51.512;7.504;2022-07-29T14:52:52;23.10;99.90
5415;DHT22;2730;51.512;7.504;2022-07-29T14:55:19;23.00;99.90
5415;DHT22;2730;51.512;7.504;2022-07-29T14:57:48;23.20;99.90
5415;DHT22;2730;51.512;7.504;2022-07-29T15:00:16;23.40;99.90
5415;DHT22;2730;51.512;7.504;2022-07-29T15:02:43;23.50;99.90
5415;DHT22;2730;51.512;7.504;2022-07-29T15:05:09;23.60;99.90
5415;DHT22;2730;51.512;7.504;2022-07-29T15:07:36;23.70;99.90
5415;DHT22;2730;51.512;7.504;2022-07-29T15:10:04;23.60;99.90
5415;DHT22;2730;51.512;7.504;2022-07-29T15:12:31;23.60;99.90
5415;DHT22;2730;51.512;7.504;2022-07-29T15:14:59;23.70;99.90
5415;DHT22;2730;51.512;7.504;2022-07-29T15:17:26;23.70;99.90
5415;DHT22;2730;51.512;7.504;2022-07-29T15:19:53;23.50;99.90
5415;DHT22;2730;51.512;7.504;2022-07-29T15:22:20;23.50;99.90
5415;DHT22;2730;51.512;7.504;2022-07-29T15:24:47;23.60;99.90
5415;DHT22;2730;51.512;7.504;2022-07-29T15:27:13;23.60;99.90
5415;DHT22;2730;51.512;7.504;2022-07-29T15:29:40;23.60;99.90
5415;DHT22;2730;51.512;7.504;2022-07-29T15:32:09;23.60;99.90
5415;DHT22;2730;51.512;7.504;2022-07-29T15:34:37;23.60;99.90
5415;DHT22;2730;51.512;7.504;2022-07-29T15:37:04;23.50;99.90
5415;DHT22;2730;51.512;7.504;2022-07-29T15:39:32;23.40;99.90
5415;DHT22;2730;51.512;7.504;2022-07-29T15:41:59;23.40;99.90
5415;DHT22;2730;51.512;7.504;2022-07-29T15:44:26;23.40;99.90
5415;DHT22;2730;51.512;7.504;2022-07-29T15:46:53;23.30;99.90
5415;DHT22;2730;51.512;7.504;2022-07-29T15:49:35;23.20;99.90
5415;DHT22;2730;51.512;7.504;2022-07-29T15:52:04;23.20;99.90
5415;DHT22;2730;51.512;7.504;2022-07-29T15:54:33;23.10;99.90
5415;DHT22;2730;51.512;7.504;2022-07-29T15:57:00;23.00;99.90
5415;DHT22;2730;51.512;7.504;2022-07-29T15:59:27;23.00;99.90
5415;DHT22;2730;51.512;7.504;2022-07-29T16:01:54;23.00;99.90
5415;DHT22;2730;51.512;7.504;2022-07-29T16:04:21;23.10;99.90
5415;DHT22;2730;51.512;7.504;2022-07-29T16:06:50;23.10;99.90
5415;DHT22;2730;51.512;7.504;2022-07-29T16:09:17;23.20;99.90
5415;DHT22;2730;51.512;7.504;2022-07-29T16:11:44;23.30;99.90
5415;DHT22;2730;51.512;7.504;2022-07-29T16:14:13;23.20;99.90
5415;DHT22;2730;51.512;7.504;2022-07-29T16:16:40;23.20;99.90
5415;DHT22;2730;51.512;7.504;2022-07-29T16:19:07;23.20;99.90
5415;DHT22;2730;51.512;7.504;2022-07-29T16:21:35;23.30;99.90
5415;DHT22;2730;51.512;7.504;2022-07-29T16:24:04;23.40;99.90
5415;DHT22;2730;51.512;7.504;2022-07-29T16:26:32;23.40;99.90
5415;DHT22;2730;51.512;7.504;2022-07-29T16:28:59;23.40;99.90
5415;DHT22;2730;51.512;7.504;2022-07-29T16:31:26;23.50;99.90
5415;DHT22;2730;51.512;7.504;2022-07-29T16:33:53;23.50;99.90
5415;DHT22;2730;51.512;7.504;2022-07-29T16:36:20;23.60;99.90
5415;DHT22;2730;51.512;7.504;2022-07-29T16:38:47;23.60;99.90
5415;DHT22;2730;51.512;7.504;2022-07-29T16:41:16;23.70;99.90
5415;DHT22;2730;51.512;7.504;2022-07-29T16:43:42;23.70;99.90
5415;DHT22;2730;51.512;7.504;2022-07-29T16:46:10;23.70;99.90
5415;DHT22;2730;51.512;7.504;2022-07-29T16:48:37;23.80;99.90
5415;DHT22;2730;51.512;7.504;2022-07-29T16:51:04;23.80;99.90
5415;DHT22;2730;51.512;7.504;2022-07-29T16:53:31;23.80;99.90
5415;DHT22;2730;51.512;7.504;2022-07-29T16:55:58;23.80;99.90
5415;DHT22;2730;51.512;7.504;2022-07-29T16:58:26;23.70;99.90
5415;DHT22;2730;51.512;7.504;2022-07-29T17:00:53;23.50;99.90
5415;DHT22;2730;51.512;7.504;2022-07-29T17:03:21;23.50;99.90
5415;DHT22;2730;51.512;7.504;2022-07-29T17:05:47;23.50;99.90
5415;DHT22;2730;51.512;7.504;2022-07-29T17:08:14;23.60;99.90
5415;DHT22;2730;51.512;7.504;2022-07-29T17:10:41;23.60;99.90
5415;DHT22;2730;51.512;7.504;2022-07-29T17:13:08;23.60;99.90
5415;DHT22;2730;51.512;7.504;2022-07-29T17:15:36;23.60;99.90
5415;DHT22;2730;51.512;7.504;2022-07-29T17:18:03;23.60;99.90
5415;DHT22;2730;51.512;7.504;2022-07-29T17:20:30;23.60;99.90
5415;DHT22;2730;51.512;7.504;2022-07-29T17:22:57;23.60;99.90
5415;DHT22;2730;51.512;7.504;2022-07-29T17:25:24;23.50;99.90
5415;DHT22;2730;51.512;7.504;2022-07-29T17:27:51;23.40;99.90
5415;DHT22;2730;51.512;7.504;2022-07-29T17:30:20;23.30;99.90
5415;DHT22;2730;51.512;7.504;2022-07-29T17:32:48;23.20;99.90
5415;DHT22;2730;51.512;7.504;2022-07-29T17:35:15;23.20;99.90
5415;DHT22;2730;51.512;7.504;2022-07-29T17:38:00;23.20;99.90
5415;DHT22;2730;51.512;7.504;2022-07-29T17:40:27;23.20;99.90
5415;DHT22;2730;51.512;7.504;2022-07-29T17:42:53;23.30;99.90
5415;DHT22;2730;51.512;7.504;2022-07-29T17:45:20;23.30;99.90
5415;DHT22;2730;51.512;7.504;2022-07-29T17:47:48;23.30;99.90
5415;DHT22;2730;51.512;7.504;2022-07-29T17:50:15;23.30;99.90
5415;DHT22;2730;51.512;7.504;2022-07-29T17:52:42;23.30;99.90
5415;DHT22;2730;51.512;7.504;2022-07-29T17:55:09;23.30;99.90
5415;DHT22;2730;51.512;7.504;2022-07-29T17:57:38;23.20;99.90
5415;DHT22;2730;51.512;7.504;2022-07-29T18:00:06;23.20;99.90
5415;DHT22;2730;51.512;7.504;2022-07-29T18:02:33;23.20;99.90
5415;DHT22;2730;51.512;7.504;2022-07-29T18:05:03;23.20;99.90
5415;DHT22;2730;51.512;7.504;2022-07-29T18:07:30;23.20;99.90
5415;DHT22;2730;51.512;7.504;2022-07-29T18:09:57;23.20;99.90
5415;DHT22;2730;51.512;7.504;2022-07-29T18:12:24;23.20;99.90
5415;DHT22;2730;51.512;7.504;2022-07-29T18:14:50;23.20;99.90
5415;DHT22;2730;51.512;7.504;2022-07-29T18:17:17;23.20;99.90
5415;DHT22;2730;51.512;7.504;2022-07-29T18:19:44;23.10;99.90
5415;DHT22;2730;51.512;7.504;2022-07-29T18:22:14;23.10;99.90
5415;DHT22;2730;51.512;7.504;2022-07-29T18:24:41;23.10;99.90
5415;DHT22;2730;51.512;7.504;2022-07-29T18:27:08;23.00;99.90
5415;DHT22;2730;51.512;7.504;2022-07-29T18:29:35;23.00;99.90
5415;DHT22;2730;51.512;7.504;2022-07-29T18:32:04;23.00;99.90
5415;DHT22;2730;51.512;7.504;2022-07-29T18:34:35;23.00;99.90
5415;DHT22;2730;51.512;7.504;2022-07-29T18:37:03;22.90;99.90
5415;DHT22;2730;51.512;7.504;2022-07-29T18:39:32;22.90;99.90
5415;DHT22;2730;51.512;7.504;2022-07-29T18:42:03;22.80;99.90
5415;DHT22;2730;51.512;7.504;2022-07-29T18:44:37;22.80;99.90
5415;DHT22;2730;51.512;7.504;2022-07-29T18:47:06;22.70;99.90
5415;DHT22;2730;51.512;7.504;2022-07-29T18:49:33;22.60;99.90
5415;DHT22;2730;51.512;7.504;2022-07-29T18:52:02;22.50;99.90
5415;DHT22;2730;51.512;7.504;2022-07-29T18:54:39;22.50;99.90
5415;DHT22;2730;51.512;7.504;2022-07-29T18:57:06;22.40;99.90
5415;DHT22;2730;51.512;7.504;2022-07-29T18:59:34;22.30;99.90
5415;DHT22;2730;51.512;7.504;2022-07-29T19:02:00;22.20;99.90
5415;DHT22;2730;51.512;7.504;2022-07-29T19:04:27;22.10;99.90
5415;DHT22;2730;51.512;7.504;2022-07-29T19:06:56;22.10;99.90
5415;DHT22;2730;51.512;7.504;2022-07-29T19:09:29;22.00;99.90
5415;DHT22;2730;51.512;7.504;2022-07-29T19:11:57;22.00;99.90
5415;DHT22;2730;51.512;7.504;2022-07-29T19:14:26;21.90;99.90
5415;DHT22;2730;51.512;7.504;2022-07-29T19:16:55;21.80;99.90
5415;DHT22;2730;51.512;7.504;2022-07-29T19:19:22;21.70;99.90
5415;DHT22;2730;51.512;7.504;2022-07-29T19:21:51;21.60;99.90
5415;DHT22;2730;51.512;7.504;2022-07-29T19:24:21;21.50;99.90
5415;DHT22;2730;51.512;7.504;2022-07-29T19:27:00;21.40;99.90
5415;DHT22;2730;51.512;7.504;2022-07-29T19:32:35;21.40;99.90
5415;DHT22;2730;51.512;7.504;2022-07-29T19:35:14;21.40;99.90
5415;DHT22;2730;51.512;7.504;2022-07-29T19:37:53;21.30;99.90
5415;DHT22;2730;51.512;7.504;2022-07-29T19:40:25;21.40;99.90
5415;DHT22;2730;51.512;7.504;2022-07-29T19:42:57;21.40;99.90
5415;DHT22;2730;51.512;7.504;2022-07-29T19:45:25;21.40;99.90
5415;DHT22;2730;51.512;7.504;2022-07-29T19:47:58;21.40;99.90
5415;DHT22;2730;51.512;7.504;2022-07-29T19:50:40;21.30;99.90
5415;DHT22;2730;51.512;7.504;2022-07-29T19:53:09;21.30;99.90
5415;DHT22;2730;51.512;7.504;2022-07-29T19:55:37;21.20;99.90
5415;DHT22;2730;51.512;7.504;2022-07-29T19:58:07;21.10;99.90
5415;DHT22;2730;51.512;7.504;2022-07-29T20:00:34;21.00;99.90
5415;DHT22;2730;51.512;7.504;2022-07-29T20:03:01;21.00;99.90
5415;DHT22;2730;51.512;7.504;2022-07-29T20:05:35;21.00;99.90
5415;DHT22;2730;51.512;7.504;2022-07-29T20:08:02;21.00;99.90
5415;DHT22;2730;51.512;7.504;2022-07-29T20:10:30;20.90;99.90
5415;DHT22;2730;51.512;7.504;2022-07-29T20:12:57;20.90;99.90
5415;DHT22;2730;51.512;7.504;2022-07-29T20:15:25;20.80;99.90
5415;DHT22;2730;51.512;7.504;2022-07-29T20:17:52;20.70;99.90
5415;DHT22;2730;51.512;7.504;2022-07-29T20:20:19;20.60;99.90
5415;DHT22;2730;51.512;7.504;2022-07-29T20:22:47;20.60;99.90
5415;DHT22;2730;51.512;7.504;2022-07-29T20:25:14;20.50;99.90
5415;DHT22;2730;51.512;7.504;2022-07-29T20:27:41;20.40;99.90
5415;DHT22;2730;51.512;7.504;2022-07-29T20:30:08;20.30;99.90
5415;DHT22;2730;51.512;7.504;2022-07-29T20:32:39;20.30;99.90
5415;DHT22;2730;51.512;7.504;2022-07-29T20:35:07;20.20;99.90
5415;DHT22;2730;51.512;7.504;2022-07-29T20:37:34;20.10;99.90
5415;DHT22;2730;51.512;7.504;2022-07-29T20:40:01;20.00;99.90
5415;DHT22;2730;51.512;7.504;2022-07-29T20:42:28;19.90;99.90
5415;DHT22;2730;51.512;7.504;2022-07-29T20:44:55;19.80;99.90
5415;DHT22;2730;51.512;7.504;2022-07-29T20:47:22;19.80;99.90
5415;DHT22;2730;51.512;7.504;2022-07-29T20:49:51;19.80;99.90
5415;DHT22;2730;51.512;7.504;2022-07-29T20:52:18;19.70;99.90
5415;DHT22;2730;51.512;7.504;2022-07-29T20:54:46;19.60;99.90
5415;DHT22;2730;51.512;7.504;2022-07-29T20:57:13;19.60;99.90
5415;DHT22;2730;51.512;7.504;2022-07-29T20:59:40;19.60;99.90
5415;DHT22;2730;51.512;7.504;2022-07-29T21:02:08;19.50;99.90
5415;DHT22;2730;51.512;7.504;2022-07-29T21:04:35;19.40;99.90
5415;DHT22;2730;51.512;7.504;2022-07-29T21:07:03;19.40;99.90
5415;DHT22;2730;51.512;7.504;2022-07-29T21:09:30;19.40;99.90
5415;DHT22;2730;51.512;7.504;2022-07-29T21:11:57;19.40;99.90
5415;DHT22;2730;51.512;7.504;2022-07-29T21:14:25;19.40;99.90
5415;DHT22;2730;51.512;7.504;2022-07-29T21:17:12;19.30;99.90
5415;DHT22;2730;51.512;7.504;2022-07-29T21:19:39;19.20;99.90
5415;DHT22;2730;51.512;7.504;2022-07-29T21:22:07;19.30;99.90
5415;DHT22;2730;51.512;7.504;2022-07-29T21:24:34;19.20;99.90